Time;durP1;ratioP1;P1;durP2;ratioP2;P2;SDS_P1;SDS_P2;PMS_P1;PMS_P2;Temp;Humidity;BMP_temperature;BMP_pressure;BME280_temperature;BME280_humidity;BME280_pressure;Samples;Min_cycle;Max_cycle;Signal;HPM_P1;HPM_P2
2022/04/27 00:00:06;;;;;;;25.13;15.73;;;9.80;99.90;;;;;;5049466;28;20191;-73
2022/04/27 00:02:33;;;;;;;24.50;15.50;;;9.80;99.90;;;;;;5060492;28;20227;-74
2022/04/27 00:05:00;;;;;;;23.70;14.87;;;9.70;99.90;;;;;;5055935;28;20727;-73
2022/04/27 00:07:28;;;;;;;25.10;15.47;;;9.80;99.90;;;;;;5054888;28;20226;-74
2022/04/27 00:09:57;;;;;;;24.90;15.33;;;9.90;99.90;;;;;;5038779;28;20641;-74
2022/04/27 00:12:25;;;;;;;25.20;15.27;;;9.80;99.90;;;;;;5054815;28;20215;-74
2022/04/27 00:14:52;;;;;;;27.00;14.63;;;9.90;99.90;;;;;;5054533;28;20198;-74
2022/04/27 00:17:19;;;;;;;24.87;14.87;;;9.90;99.90;;;;;;5038219;28;20221;-74
2022/04/27 00:19:46;;;;;;;25.23;15.17;;;10.00;99.90;;;;;;5037989;28;20199;-75
2022/04/27 00:22:14;;;;;;;23.97;15.17;;;10.00;99.90;;;;;;5055145;28;20195;-74
2022/04/27 00:24:40;;;;;;;23.37;15.03;;;10.00;99.90;;;;;;5055954;28;20191;-73
2022/04/27 00:27:07;;;;;;;26.63;15.90;;;9.90;99.90;;;;;;5054333;28;20632;-75
2022/04/27 00:29:34;;;;;;;27.80;15.40;;;9.90;99.90;;;;;;5054695;28;20203;-73
2022/04/27 00:32:01;;;;;;;26.77;16.50;;;9.90;99.90;;;;;;5054259;28;20613;-75
2022/04/27 00:34:31;;;;;;;28.90;16.77;;;10.00;99.90;;;;;;5055598;28;20190;-77
2022/04/27 00:36:58;;;;;;;29.30;17.07;;;10.00;99.90;;;;;;5054537;28;20199;-75
2022/04/27 00:39:25;;;;;;;26.20;16.43;;;9.90;99.90;;;;;;5054429;28;20199;-74
2022/04/27 00:42:01;;;;;;;25.60;15.50;;;9.80;99.90;;;;;;5054106;28;20222;-77
2022/04/27 00:44:29;;;;;;;25.37;15.70;;;9.80;99.90;;;;;;5054389;28;20222;-74
2022/04/27 00:46:56;;;;;;;27.57;16.73;;;9.80;99.90;;;;;;5055524;28;20207;-75
2022/04/27 00:49:25;;;;;;;28.20;16.20;;;9.80;99.90;;;;;;5053996;28;20195;-74
2022/04/27 00:51:53;;;;;;;24.60;15.50;;;9.80;99.90;;;;;;5054033;28;20229;-75
2022/04/27 00:54:22;;;;;;;23.53;14.70;;;9.70;99.90;;;;;;5053627;28;20225;-74
2022/04/27 00:56:50;;;;;;;26.33;16.17;;;9.80;99.90;;;;;;5053820;28;20645;-75
2022/04/27 00:59:18;;;;;;;28.73;16.53;;;9.90;99.90;;;;;;5054082;28;20221;-74
2022/04/27 01:01:45;;;;;;;26.10;16.57;;;9.80;99.90;;;;;;5053465;28;20230;-74
2022/04/27 01:04:12;;;;;;;25.57;16.83;;;9.80;99.90;;;;;;5054062;28;20209;-73
2022/04/27 01:06:39;;;;;;;29.53;17.13;;;9.70;99.90;;;;;;5053607;28;20206;-73
2022/04/27 01:09:06;;;;;;;33.27;18.07;;;9.60;99.90;;;;;;5056627;28;20209;-74
2022/04/27 01:11:34;;;;;;;30.33;17.90;;;9.60;99.90;;;;;;5061434;28;20298;-75
2022/04/27 01:14:01;;;;;;;28.80;17.90;;;9.50;99.90;;;;;;5052690;28;20195;-75
2022/04/27 01:16:28;;;;;;;31.10;18.00;;;9.40;99.90;;;;;;5053579;28;20203;-74
2022/04/27 01:18:55;;;;;;;33.07;19.53;;;9.40;99.90;;;;;;5053390;28;20195;-74
2022/04/27 01:21:22;;;;;;;32.90;18.33;;;9.20;99.90;;;;;;5053541;28;20203;-74
2022/04/27 01:23:49;;;;;;;30.20;18.10;;;9.20;99.90;;;;;;5053071;28;20195;-74
2022/04/27 01:26:16;;;;;;;31.53;18.50;;;9.20;99.90;;;;;;5053154;28;20560;-74
2022/04/27 01:28:45;;;;;;;31.20;18.37;;;9.10;99.90;;;;;;5053534;28;20554;-74
2022/04/27 01:31:12;;;;;;;31.93;19.70;;;9.00;99.90;;;;;;5054515;28;20211;-74
2022/04/27 01:33:39;;;;;;;33.53;19.00;;;9.00;99.90;;;;;;5053265;28;20273;-75
2022/04/27 01:36:10;;;;;;;32.60;19.80;;;9.00;99.90;;;;;;5053100;28;20203;-74
2022/04/27 01:38:39;;;;;;;31.43;19.30;;;8.90;99.90;;;;;;5052930;28;20221;-74
2022/04/27 01:41:06;;;;;;;32.67;19.47;;;8.90;99.90;;;;;;5036657;28;20286;-74
2022/04/27 01:43:34;;;;;;;31.27;18.47;;;8.80;99.90;;;;;;5053009;28;20269;-74
2022/04/27 01:46:03;;;;;;;31.17;18.43;;;8.80;99.90;;;;;;5052947;28;20203;-74
2022/04/27 01:48:30;;;;;;;36.93;20.97;;;8.90;99.90;;;;;;5053171;28;20550;-74
2022/04/27 01:50:56;;;;;;;34.53;20.87;;;8.80;99.90;;;;;;5052803;28;20207;-74
2022/04/27 01:56:09;;;;;;;36.00;21.50;;;8.80;99.90;;;;;;5053885;28;20549;-73
2022/04/27 01:58:36;;;;;;;36.93;21.10;;;8.70;99.90;;;;;;5052563;28;20277;-74
2022/04/27 02:01:03;;;;;;;42.23;21.33;;;8.60;99.90;;;;;;5052439;28;20226;-74
2022/04/27 02:03:30;;;;;;;37.93;21.83;;;8.60;99.90;;;;;;5054263;28;20202;-74
2022/04/27 02:05:57;;;;;;;35.40;21.30;;;8.60;99.90;;;;;;5035843;28;20252;-74
2022/04/27 02:08:24;;;;;;;38.93;22.37;;;8.60;99.90;;;;;;5052564;28;20199;-74
2022/04/27 02:10:51;;;;;;;37.67;22.03;;;8.50;99.90;;;;;;5052518;28;20706;-74
2022/04/27 02:13:18;;;;;;;42.60;22.33;;;8.50;99.90;;;;;;5052452;28;20205;-74
2022/04/27 02:15:45;;;;;;;39.23;23.03;;;8.50;99.90;;;;;;5051993;28;20640;-74
2022/04/27 02:18:12;;;;;;;40.97;24.00;;;8.40;99.90;;;;;;5053403;28;20652;-74
2022/04/27 02:20:40;;;;;;;38.03;21.77;;;8.40;99.90;;;;;;5052165;28;20632;-74
2022/04/27 02:23:06;;;;;;;36.90;21.63;;;8.30;99.90;;;;;;5052114;28;20201;-74
2022/04/27 02:25:33;;;;;;;36.77;21.97;;;8.30;99.90;;;;;;5051915;28;20209;-74
2022/04/27 02:28:00;;;;;;;36.83;21.40;;;8.30;99.90;;;;;;5052285;28;20205;-75
2022/04/27 02:30:27;;;;;;;39.50;22.07;;;8.30;99.90;;;;;;5052482;28;20195;-74
2022/04/27 02:32:54;;;;;;;38.83;22.37;;;8.30;99.90;;;;;;5052083;28;20230;-75
2022/04/27 02:35:21;;;;;;;36.17;21.73;;;8.30;99.90;;;;;;5051765;28;20194;-74
2022/04/27 02:37:47;;;;;;;38.90;21.93;;;8.20;99.90;;;;;;5035656;28;20647;-74
2022/04/27 02:40:15;;;;;;;39.30;23.00;;;8.20;99.90;;;;;;5051976;28;20208;-73
2022/04/27 02:42:41;;;;;;;38.27;22.23;;;8.10;99.90;;;;;;5052403;28;20202;-73
2022/04/27 02:45:08;;;;;;;39.53;22.57;;;8.10;99.90;;;;;;5035489;28;20289;-73
2022/04/27 02:47:35;;;;;;;40.47;23.23;;;8.10;99.90;;;;;;5053692;28;20193;-73
2022/04/27 02:52:48;;;;;;;42.87;24.57;;;8.00;99.90;;;;;;5051642;28;20248;-74
2022/04/27 02:55:15;;;;;;;39.70;23.80;;;7.90;99.90;;;;;;5051763;28;20201;-74
2022/04/27 02:57:42;;;;;;;44.13;24.53;;;7.80;99.90;;;;;;5052169;28;20217;-74
2022/04/27 03:00:09;;;;;;;39.43;23.83;;;7.90;99.90;;;;;;5051783;28;20198;-74
2022/04/27 03:02:39;;;;;;;42.13;23.67;;;7.80;99.90;;;;;;5051519;28;20222;-74
2022/04/27 03:05:07;;;;;;;41.73;23.93;;;7.70;99.90;;;;;;5057633;28;20279;-73
2022/04/27 03:07:34;;;;;;;41.33;24.00;;;7.60;99.90;;;;;;5055399;28;20209;-74
2022/04/27 03:10:01;;;;;;;45.53;24.33;;;7.60;99.90;;;;;;5051709;28;20562;-74
2022/04/27 03:12:28;;;;;;;39.17;23.40;;;7.50;99.90;;;;;;5051703;28;20237;-74
2022/04/27 03:14:54;;;;;;;41.50;23.60;;;7.60;99.90;;;;;;5053025;28;20194;-73
2022/04/27 03:17:21;;;;;;;38.23;22.70;;;7.60;99.90;;;;;;5051754;28;20202;-73
2022/04/27 03:19:54;;;;;;;38.10;22.30;;;7.50;99.90;;;;;;5051559;28;20255;-73
2022/04/27 03:22:22;;;;;;;41.67;23.33;;;7.50;99.90;;;;;;5051991;28;20209;-73
2022/04/27 03:24:49;;;;;;;42.73;24.23;;;7.50;99.90;;;;;;5051819;28;20675;-73
2022/04/27 03:27:16;;;;;;;44.00;23.73;;;7.60;99.90;;;;;;5052985;28;20219;-73
2022/04/27 03:29:42;;;;;;;38.63;22.07;;;7.60;99.90;;;;;;5052353;28;20202;-73
2022/04/27 03:32:10;;;;;;;36.60;21.00;;;7.60;99.90;;;;;;5051764;28;20754;-73
2022/04/27 03:34:37;;;;;;;44.03;21.90;;;7.60;99.90;;;;;;5051944;28;20211;-74
2022/04/27 03:37:04;;;;;;;37.77;21.40;;;7.60;99.90;;;;;;5052038;28;20205;-73
2022/04/27 03:39:31;;;;;;;38.53;21.90;;;7.60;99.90;;;;;;5055353;28;20206;-72
2022/04/27 03:42:09;;;;;;;37.17;21.67;;;7.60;99.90;;;;;;5056687;28;20214;-73
2022/04/27 03:44:36;;;;;;;39.30;21.93;;;7.70;99.90;;;;;;5055314;28;20202;-73
2022/04/27 03:47:04;;;;;;;36.53;21.37;;;7.70;99.90;;;;;;5039294;28;20202;-74
2022/04/27 03:49:31;;;;;;;35.27;21.07;;;7.70;99.90;;;;;;5056910;28;20197;-73
2022/04/27 03:51:58;;;;;;;36.63;20.60;;;7.70;99.90;;;;;;5055670;28;20721;-74
2022/04/27 03:54:25;;;;;;;33.13;20.40;;;7.80;99.90;;;;;;5055359;28;20615;-74
2022/04/27 03:56:52;;;;;;;32.43;20.10;;;7.90;99.90;;;;;;5055402;28;20299;-74
2022/04/27 03:59:19;;;;;;;37.03;20.30;;;7.90;99.90;;;;;;5055451;28;20191;-74
2022/04/27 04:01:46;;;;;;;39.03;20.87;;;8.10;99.90;;;;;;5055664;28;20229;-74
2022/04/27 04:04:13;;;;;;;35.27;20.80;;;8.00;99.90;;;;;;5054921;28;20230;-74
2022/04/27 04:06:40;;;;;;;39.57;21.77;;;8.00;99.90;;;;;;5055100;28;20198;-73
2022/04/27 04:09:06;;;;;;;34.73;20.93;;;8.00;99.90;;;;;;5054887;28;20198;-73
2022/04/27 04:11:33;;;;;;;33.07;20.63;;;8.00;99.90;;;;;;5054757;28;20202;-73
2022/04/27 04:14:00;;;;;;;33.40;20.10;;;8.00;99.90;;;;;;5037713;28;20202;-73
2022/04/27 04:16:27;;;;;;;37.00;20.43;;;8.10;99.90;;;;;;5055085;28;20191;-74
2022/04/27 04:18:54;;;;;;;34.30;20.60;;;8.20;99.90;;;;;;5038233;28;20264;-73
2022/04/27 04:21:21;;;;;;;35.43;21.03;;;8.20;99.90;;;;;;5054949;28;20201;-73
2022/04/27 04:23:47;;;;;;;34.83;20.90;;;8.20;99.90;;;;;;5054658;28;20197;-74
2022/04/27 04:29:00;;;;;;;36.20;21.03;;;8.20;99.90;;;;;;5054546;28;20198;-73
2022/04/27 04:31:26;;;;;;;32.90;21.40;;;8.20;99.90;;;;;;5054247;28;20201;-71
2022/04/27 04:33:53;;;;;;;38.40;21.60;;;8.20;99.90;;;;;;5054126;28;20222;-74
2022/04/27 04:36:20;;;;;;;35.70;21.03;;;8.30;99.90;;;;;;5055453;28;20647;-73
2022/04/27 04:38:47;;;;;;;35.47;21.30;;;8.30;99.90;;;;;;5054255;28;20209;-73
2022/04/27 04:41:14;;;;;;;38.00;22.13;;;8.40;99.90;;;;;;5054167;28;20209;-73
2022/04/27 04:43:40;;;;;;;36.57;21.30;;;8.50;99.90;;;;;;5054451;28;20187;-73
2022/04/27 04:46:08;;;;;;;37.17;21.77;;;8.50;99.90;;;;;;5053736;28;20652;-73
2022/04/27 04:48:36;;;;;;;38.83;21.57;;;8.50;99.90;;;;;;5054022;28;20195;-73
2022/04/27 04:51:02;;;;;;;37.67;20.93;;;8.50;99.90;;;;;;5054204;28;20203;-73
2022/04/27 04:53:30;;;;;;;36.27;21.17;;;8.60;99.90;;;;;;5053703;28;20231;-73
2022/04/27 04:55:57;;;;;;;37.70;21.90;;;8.60;99.90;;;;;;5053936;28;20286;-73
2022/04/27 04:58:28;;;;;;;35.97;20.97;;;8.70;99.90;;;;;;5055426;28;20198;-74
2022/04/27 05:00:55;;;;;;;36.53;21.60;;;8.70;99.90;;;;;;5058428;28;20240;-73
2022/04/27 05:03:22;;;;;;;33.60;19.67;;;8.80;99.90;;;;;;5064428;28;20190;-72
2022/04/27 05:05:49;;;;;;;35.67;21.43;;;8.80;99.90;;;;;;5074617;28;20201;-72
2022/04/27 05:08:16;;;;;;;34.77;20.90;;;8.80;99.90;;;;;;5073642;28;20194;-73
2022/04/27 05:10:42;;;;;;;32.53;20.07;;;8.80;99.90;;;;;;5073168;28;20198;-73
2022/04/27 05:13:09;;;;;;;36.20;20.43;;;8.80;99.90;;;;;;5073588;28;20233;-72
2022/04/27 05:15:36;;;;;;;36.33;20.20;;;8.80;99.90;;;;;;5073647;28;20674;-73
2022/04/27 05:18:03;;;;;;;35.30;19.90;;;8.90;99.90;;;;;;5073515;28;20198;-72
2022/04/27 05:20:30;;;;;;;32.20;19.90;;;8.80;99.90;;;;;;5073369;28;20202;-73
2022/04/27 05:22:57;;;;;;;32.80;18.90;;;8.80;99.90;;;;;;5074552;28;20195;-74
2022/04/27 05:25:24;;;;;;;32.47;19.53;;;8.80;99.90;;;;;;5073107;28;20201;-73
2022/04/27 05:27:51;;;;;;;31.93;18.97;;;8.80;99.90;;;;;;5073064;28;20229;-73
2022/04/27 05:33:03;;;;;;;33.73;18.00;;;8.80;99.90;;;;;;5072793;28;20218;-73
2022/04/27 05:35:30;;;;;;;31.43;18.33;;;8.80;99.90;;;;;;5072890;28;20296;-73
2022/04/27 05:37:57;;;;;;;32.30;17.87;;;8.80;99.90;;;;;;5056280;28;20198;-73
2022/04/27 05:40:25;;;;;;;28.63;17.53;;;8.80;99.90;;;;;;5072628;28;20198;-73
2022/04/27 05:42:52;;;;;;;27.70;16.37;;;8.90;99.90;;;;;;5072515;28;20616;-72
2022/04/27 05:45:19;;;;;;;21.93;14.07;;;8.90;99.90;;;;;;5072438;28;20201;-73
2022/04/27 05:47:46;;;;;;;26.47;14.73;;;9.00;99.90;;;;;;5074062;28;20201;-73
2022/04/27 05:50:13;;;;;;;24.50;14.27;;;9.00;99.90;;;;;;5072445;28;20220;-73
2022/04/27 05:52:56;;;;;;;20.73;12.97;;;9.00;99.90;;;;;;5072293;28;20709;-73
2022/04/27 05:55:23;;;;;;;25.37;13.57;;;9.10;99.90;;;;;;5072337;28;20209;-73
2022/04/27 05:57:50;;;;;;;23.20;12.83;;;9.30;99.90;;;;;;5072580;28;20194;-74
2022/04/27 06:00:19;;;;;;;21.03;12.27;;;9.40;99.90;;;;;;5071940;28;20212;-73
2022/04/27 06:02:46;;;;;;;20.63;12.20;;;9.40;99.90;;;;;;5073490;28;20222;-74
2022/04/27 06:05:13;;;;;;;19.53;12.37;;;9.40;99.90;;;;;;5069786;28;20186;-74
2022/04/27 06:07:40;;;;;;;23.10;12.80;;;9.50;99.90;;;;;;5072003;28;20194;-74
2022/04/27 06:10:08;;;;;;;19.23;11.90;;;9.60;99.90;;;;;;5073628;28;20190;-73
2022/04/27 06:12:40;;;;;;;22.13;13.00;;;9.60;99.90;;;;;;5072248;28;20241;-74
2022/04/27 06:15:11;;;;;;;21.03;12.63;;;9.60;99.90;;;;;;5071928;28;20644;-73
2022/04/27 06:17:38;;;;;;;19.47;12.23;;;9.70;99.90;;;;;;5072204;28;20190;-72
2022/04/27 06:20:05;;;;;;;22.67;12.63;;;9.70;99.90;;;;;;5072097;28;20758;-72
2022/04/27 06:22:32;;;;;;;22.07;12.93;;;9.70;99.90;;;;;;5072132;28;20237;-72
2022/04/27 06:24:59;;;;;;;18.87;12.27;;;9.90;99.90;;;;;;5071743;28;20675;-74
2022/04/27 06:27:26;;;;;;;20.17;11.87;;;9.90;99.90;;;;;;5071976;28;20198;-74
2022/04/27 06:29:53;;;;;;;20.13;11.70;;;10.00;99.90;;;;;;5072200;28;20301;-75
2022/04/27 06:32:19;;;;;;;19.00;11.13;;;10.20;99.90;;;;;;5071807;28;20553;-74
2022/04/27 06:34:46;;;;;;;17.27;10.97;;;10.30;99.90;;;;;;5072896;28;20194;-74
2022/04/27 06:37:13;;;;;;;19.53;11.20;;;10.40;99.90;;;;;;5072033;28;20195;-73
2022/04/27 06:39:40;;;;;;;17.73;9.87;;;10.50;99.90;;;;;;5072116;28;20198;-72
2022/04/27 06:42:08;;;;;;;19.33;9.80;;;10.60;99.90;;;;;;5055400;28;20715;-73
2022/04/27 06:44:35;;;;;;;15.10;9.87;;;10.70;99.90;;;;;;5055004;28;20212;-73
2022/04/27 06:47:03;;;;;;;15.50;9.53;;;10.70;99.90;;;;;;5072098;28;20190;-73
2022/04/27 06:49:30;;;;;;;16.37;9.73;;;10.80;99.90;;;;;;5071906;28;20255;-73
2022/04/27 06:51:58;;;;;;;16.53;9.60;;;10.90;99.90;;;;;;5072103;28;20193;-74
2022/04/27 06:54:24;;;;;;;16.40;9.70;;;10.90;99.90;;;;;;5071704;28;20226;-74
2022/04/27 06:56:51;;;;;;;15.43;9.80;;;11.00;99.90;;;;;;5072057;28;20191;-74
2022/04/27 06:59:18;;;;;;;15.93;9.40;;;11.00;99.90;;;;;;5072681;28;20259;-74
2022/04/27 07:01:45;;;;;;;14.67;9.00;;;11.10;99.90;;;;;;5071654;28;20233;-74
2022/04/27 07:04:12;;;;;;;17.37;9.10;;;11.30;99.90;;;;;;5070480;28;20534;-73
2022/04/27 07:06:40;;;;;;;13.43;9.10;;;11.40;99.90;;;;;;5087092;28;20198;-74
2022/04/27 07:09:11;;;;;;;14.30;8.63;;;11.50;99.90;;;;;;5078978;28;20244;-74
2022/04/27 07:11:40;;;;;;;12.73;8.13;;;11.60;99.90;;;;;;5075932;28;20707;-73
2022/04/27 07:14:08;;;;;;;11.60;8.10;;;11.70;99.90;;;;;;5074919;28;20313;-75
2022/04/27 07:16:35;;;;;;;12.40;8.00;;;11.90;99.90;;;;;;5077382;28;20187;-75
2022/04/27 07:19:03;;;;;;;11.70;7.87;;;12.00;99.90;;;;;;5073655;28;20237;-80
2022/04/27 07:21:29;;;;;;;11.70;7.77;;;12.20;99.90;;;;;;5075777;28;20198;-86
2022/04/27 07:23:58;;;;;;;13.03;7.43;;;12.20;99.90;;;;;;5078366;28;20202;-74
2022/04/27 07:26:25;;;;;;;11.60;7.50;;;12.30;99.90;;;;;;5075907;28;20228;-78
2022/04/27 07:28:51;;;;;;;13.07;6.63;;;12.50;99.90;;;;;;5074383;28;20204;-72
2022/04/27 07:31:18;;;;;;;10.00;5.97;;;12.60;99.90;;;;;;5075116;28;20217;-71
2022/04/27 07:33:45;;;;;;;10.33;5.70;;;12.70;99.90;;;;;;5076650;28;20317;-73
2022/04/27 07:36:12;;;;;;;8.03;5.43;;;12.70;99.90;;;;;;5075441;28;20194;-71
2022/04/27 07:38:39;;;;;;;8.67;5.47;;;12.70;99.90;;;;;;5075391;28;20639;-70
2022/04/27 07:41:07;;;;;;;12.63;5.70;;;12.80;99.90;;;;;;5075815;28;20209;-75
2022/04/27 07:43:34;;;;;;;9.60;5.50;;;12.80;99.90;;;;;;5074955;28;20201;-72
2022/04/27 07:46:03;;;;;;;8.80;5.40;;;12.90;99.90;;;;;;5074918;28;20202;-72
2022/04/27 07:48:34;;;;;;;10.10;5.97;;;13.00;99.90;;;;;;5076587;28;20224;-74
2022/04/27 07:51:02;;;;;;;9.50;5.30;;;13.10;99.90;;;;;;5075398;28;20548;-70
2022/04/27 07:53:29;;;;;;;8.40;5.50;;;13.20;99.90;;;;;;5075641;28;20230;-78
2022/04/27 07:55:57;;;;;;;8.93;5.03;;;13.10;99.90;;;;;;5075333;28;20236;-73
2022/04/27 07:58:24;;;;;;;10.17;5.30;;;13.20;99.90;;;;;;5055285;28;20195;-70
2022/04/27 08:00:51;;;;;;;8.87;5.77;;;13.30;99.90;;;;;;5055194;28;20245;-79
2022/04/27 08:03:18;;;;;;;7.70;5.33;;;13.50;99.90;;;;;;5054925;28;20195;-80
2022/04/27 08:05:45;;;;;;;7.80;4.87;;;13.60;99.90;;;;;;5068894;28;20194;-77
2022/04/27 08:08:12;;;;;;;8.87;4.97;;;14.50;99.90;;;;;;5074996;28;20205;-82
2022/04/27 08:10:42;;;;;;;7.93;5.00;;;15.90;99.90;;;;;;5074951;28;20231;-73
2022/04/27 08:13:09;;;;;;;6.83;4.20;;;17.20;99.90;;;;;;5076708;28;20641;-70
2022/04/27 08:15:37;;;;;;;8.57;4.20;;;17.80;99.90;;;;;;5058149;28;20230;-70
2022/04/27 08:18:06;;;;;;;7.80;4.63;;;18.50;99.80;;;;;;5075394;28;20198;-75
2022/04/27 08:23:29;;;;;;;4.77;3.77;;;19.50;94.80;;;;;;5073756;28;20194;-69
2022/04/27 08:25:59;;;;;;;5.73;3.77;;;19.80;90.60;;;;;;5074379;28;20198;-78
2022/04/27 08:28:27;;;;;;;7.00;4.30;;;20.20;90.30;;;;;;5074577;28;20297;-80
2022/04/27 08:30:55;;;;;;;5.60;3.87;;;20.30;84.40;;;;;;5074214;28;20682;-74
2022/04/27 08:33:22;;;;;;;5.60;4.00;;;20.80;80.10;;;;;;5074360;28;20214;-71
2022/04/27 08:35:49;;;;;;;5.40;4.10;;;21.10;79.20;;;;;;5074349;28;20198;-72
2022/04/27 08:38:37;;;;;;;5.53;3.90;;;21.30;76.20;;;;;;5074319;28;20194;-72
2022/04/27 08:41:05;;;;;;;7.27;3.80;;;21.70;74.70;;;;;;5075306;28;20294;-71
2022/04/27 08:43:31;;;;;;;6.97;4.20;;;21.80;68.80;;;;;;5057533;28;20643;-71
2022/04/27 08:46:02;;;;;;;6.60;4.18;;;21.50;69.60;;;;;;5073856;28;20204;-72
2022/04/27 08:48:30;;;;;;;5.33;3.30;;;21.80;68.90;;;;;;5074074;28;20662;-80
2022/04/27 08:51:00;;;;;;;4.13;3.10;;;22.20;66.80;;;;;;5074060;28;20197;-72
2022/04/27 08:53:27;;;;;;;3.80;2.80;;;22.40;61.70;;;;;;5074873;28;20214;-75
2022/04/27 08:55:55;;;;;;;4.88;3.47;;;22.00;60.90;;;;;;5073931;28;20204;-77
2022/04/27 08:58:23;;;;;;;5.43;3.70;;;22.20;58.30;;;;;;5073809;28;20204;-72
2022/04/27 09:01:08;;;;;;;6.30;3.28;;;22.20;58.50;;;;;;5074919;28;20229;-73
2022/04/27 09:03:36;;;;;;;6.07;3.67;;;22.50;60.30;;;;;;5074057;28;20216;-72
2022/04/27 09:06:06;;;;;;;5.33;3.20;;;22.30;62.20;;;;;;5073019;28;20244;-75
2022/04/27 09:08:46;;;;;;;5.67;3.47;;;21.70;62.80;;;;;;5073661;28;20720;-72
2022/04/27 09:11:15;;;;;;;5.23;3.20;;;20.80;62.30;;;;;;5073730;28;20190;-72
2022/04/27 09:13:50;;;;;;;4.43;2.83;;;20.70;65.30;;;;;;5073537;28;20229;-72
2022/04/27 09:16:18;;;;;;;4.30;2.83;;;20.90;63.40;;;;;;5073534;28;20200;-72
2022/04/27 09:21:59;;;;;;;4.70;2.77;;;20.90;60.30;;;;;;5073319;28;20669;-72
2022/04/27 09:24:46;;;;;;;3.93;2.13;;;20.80;59.80;;;;;;5073129;28;20618;-78
2022/04/27 09:27:17;;;;;;;3.83;2.30;;;20.50;61.80;;;;;;5073066;28;20194;-71
2022/04/27 09:29:56;;;;;;;4.63;2.30;;;20.10;59.50;;;;;;5073434;28;20198;-70
2022/04/27 09:32:24;;;;;;;2.73;1.93;;;19.60;62.30;;;;;;5071461;28;20277;-71
2022/04/27 09:34:51;;;;;;;3.43;2.13;;;19.40;63.40;;;;;;5060712;28;20214;-70
2022/04/27 09:37:21;;;;;;;3.87;2.40;;;19.20;61.50;;;;;;5072936;28;20190;-69
2022/04/27 09:40:09;;;;;;;3.60;2.43;;;18.90;64.10;;;;;;5072865;28;20191;-71
2022/04/27 09:42:40;;;;;;;2.97;2.10;;;18.80;64.90;;;;;;5074063;28;20252;-71
2022/04/27 09:45:13;;;;;;;4.13;2.20;;;18.70;66.30;;;;;;5072747;28;20237;-72
2022/04/27 09:47:45;;;;;;;3.80;2.03;;;18.60;63.30;;;;;;5074090;28;20213;-72
2022/04/27 09:50:12;;;;;;;4.13;2.50;;;18.40;64.10;;;;;;5072550;28;20553;-70
2022/04/27 09:52:40;;;;;;;4.33;2.40;;;18.40;64.40;;;;;;5052512;28;20194;-69
2022/04/27 09:55:08;;;;;;;8.27;2.70;;;18.20;65.60;;;;;;5057706;28;20222;-69
2022/04/27 09:57:39;;;;;;;2.83;1.90;;;18.00;68.00;;;;;;5072549;28;20198;-70
2022/04/27 10:00:07;;;;;;;3.50;2.07;;;17.80;67.30;;;;;;5073761;28;20190;-75
2022/04/27 10:02:37;;;;;;;3.17;1.90;;;17.60;64.20;;;;;;5073660;28;20249;-71
2022/04/27 10:05:06;;;;;;;2.97;1.83;;;17.40;64.60;;;;;;5071517;28;20198;-70
2022/04/27 10:07:34;;;;;;;3.40;1.60;;;17.30;64.50;;;;;;5072446;28;20747;-70
2022/04/27 10:10:04;;;;;;;2.53;1.93;;;17.10;66.20;;;;;;5072485;28;20632;-70
2022/04/27 10:12:37;;;;;;;2.67;2.00;;;17.20;67.00;;;;;;5072628;28;20229;-69
2022/04/27 10:15:05;;;;;;;2.10;1.60;;;17.00;65.50;;;;;;5072224;28;20263;-70
2022/04/27 10:17:34;;;;;;;2.73;1.70;;;17.10;67.50;;;;;;5072153;28;20194;-69
2022/04/27 10:20:21;;;;;;;3.50;1.87;;;17.20;68.20;;;;;;5072600;28;20591;-70
2022/04/27 10:22:48;;;;;;;4.57;2.00;;;17.20;66.60;;;;;;5072078;28;20196;-79
2022/04/27 10:25:15;;;;;;;3.27;1.80;;;17.20;69.10;;;;;;5072146;28;20202;-72
2022/04/27 10:27:42;;;;;;;4.33;1.67;;;17.40;67.70;;;;;;5054616;28;20216;-73
2022/04/27 10:30:13;;;;;;;2.50;1.80;;;17.50;65.40;;;;;;5072200;28;20194;-80
2022/04/27 10:32:40;;;;;;;3.00;1.80;;;17.60;68.40;;;;;;5072161;28;20198;-71
2022/04/27 10:35:19;;;;;;;4.00;2.13;;;17.50;66.90;;;;;;5071705;28;20222;-71
2022/04/27 10:37:46;;;;;;;4.30;1.80;;;17.40;64.60;;;;;;5072077;28;20201;-74
2022/04/27 10:40:33;;;;;;;4.47;2.00;;;17.30;64.80;;;;;;5072023;28;20187;-70
2022/04/27 10:43:06;;;;;;;3.10;1.80;;;17.10;66.70;;;;;;5072095;28;20236;-71
2022/04/27 10:45:35;;;;;;;3.93;2.07;;;17.00;63.90;;;;;;5071706;28;20194;-70
2022/04/27 10:48:06;;;;;;;2.43;1.60;;;17.10;66.80;;;;;;5072904;28;20299;-75
2022/04/27 10:50:33;;;;;;;2.27;1.80;;;17.20;64.90;;;;;;5071962;28;20204;-76
2022/04/27 10:53:24;;;;;;;4.03;2.07;;;17.10;64.80;;;;;;5071615;28;20214;-70
2022/04/27 10:55:56;;;;;;;4.70;2.20;;;17.00;65.40;;;;;;5071930;28;20237;-75
2022/04/27 10:58:29;;;;;;;3.17;2.00;;;17.20;66.00;;;;;;5071857;28;20229;-72
2022/04/27 11:01:02;;;;;;;4.27;1.80;;;17.20;65.00;;;;;;5071647;28;20218;-72
2022/04/27 11:03:31;;;;;;;3.63;1.87;;;17.00;64.60;;;;;;5071790;28;20186;-73
2022/04/27 11:06:00;;;;;;;4.53;1.80;;;17.00;69.00;;;;;;5069538;28;20244;-78
2022/04/27 11:08:47;;;;;;;3.67;2.13;;;17.20;68.80;;;;;;5073355;28;20194;-78
2022/04/27 11:11:19;;;;;;;3.47;2.20;;;17.40;71.00;;;;;;5071812;28;20206;-73
2022/04/27 11:13:47;;;;;;;4.97;2.30;;;17.50;69.80;;;;;;5071597;28;20218;-76
2022/04/27 11:16:15;;;;;;;3.37;2.03;;;17.30;67.20;;;;;;5072768;28;20197;-79
2022/04/27 11:18:55;;;;;;;3.23;2.20;;;17.20;69.10;;;;;;5071835;28;20627;-72
2022/04/27 11:21:29;;;;;;;4.30;2.30;;;17.10;67.30;;;;;;5072929;28;20562;-73
2022/04/27 11:24:00;;;;;;;4.23;2.30;;;16.90;68.00;;;;;;5071559;28;20659;-73
2022/04/27 11:26:28;;;;;;;4.47;2.10;;;16.70;67.90;;;;;;5071855;28;20293;-74
2022/04/27 11:28:57;;;;;;;3.87;2.30;;;16.80;68.10;;;;;;5070842;28;20194;-72
2022/04/27 11:31:25;;;;;;;5.00;2.33;;;16.80;69.10;;;;;;5071406;28;20292;-80
2022/04/27 11:33:52;;;;;;;4.60;2.30;;;16.90;69.80;;;;;;5069708;28;20221;-75
2022/04/27 11:36:25;;;;;;;2.80;1.90;;;16.60;69.60;;;;;;5072320;28;20583;-75
2022/04/27 11:38:52;;;;;;;2.40;1.90;;;16.40;69.80;;;;;;5071822;28;20190;-80
2022/04/27 11:41:21;;;;;;;3.50;2.10;;;16.50;70.00;;;;;;5071452;28;20609;-78
2022/04/27 11:43:50;;;;;;;3.03;2.20;;;16.60;69.60;;;;;;5070240;28;20290;-70
2022/04/27 11:46:17;;;;;;;2.80;2.10;;;16.60;70.00;;;;;;5071365;28;20200;-76
2022/04/27 11:48:52;;;;;;;5.77;2.60;;;16.70;69.30;;;;;;5054981;28;20202;-83
2022/04/27 11:51:19;;;;;;;3.20;2.03;;;16.50;67.30;;;;;;5051865;28;20194;-71
2022/04/27 11:53:48;;;;;;;4.03;2.10;;;16.70;70.60;;;;;;5052618;28;20245;-71
2022/04/27 11:56:17;;;;;;;4.43;2.10;;;16.70;69.60;;;;;;5052529;28;20683;-73
2022/04/27 11:58:45;;;;;;;3.53;2.10;;;16.80;69.10;;;;;;5054436;28;20273;-71
2022/04/27 12:01:22;;;;;;;3.50;2.03;;;16.80;68.10;;;;;;5056813;28;20318;-77
2022/04/27 12:03:50;;;;;;;3.20;1.90;;;16.70;67.80;;;;;;5074905;28;20210;-79
2022/04/27 12:06:19;;;;;;;3.53;1.93;;;16.70;67.40;;;;;;5073146;28;20190;-80
2022/04/27 12:08:46;;;;;;;2.60;1.60;;;16.70;67.80;;;;;;5056536;28;20204;-71
2022/04/27 12:11:22;;;;;;;2.87;1.80;;;16.70;69.10;;;;;;5074554;28;20679;-70
2022/04/27 12:13:56;;;;;;;4.03;1.97;;;16.80;69.40;;;;;;5074503;28;20208;-72
2022/04/27 12:16:28;;;;;;;3.10;1.97;;;16.80;70.20;;;;;;5074035;28;20233;-75
2022/04/27 12:18:59;;;;;;;3.30;2.23;;;17.00;68.60;;;;;;5075698;28;20232;-75
2022/04/27 12:21:27;;;;;;;3.03;1.90;;;17.00;66.80;;;;;;5058295;28;20566;-71
2022/04/27 12:23:57;;;;;;;7.57;2.13;;;16.90;66.10;;;;;;5074363;28;20199;-73
2022/04/27 12:26:25;;;;;;;3.53;2.00;;;17.00;67.90;;;;;;5074560;28;20639;-67
2022/04/27 12:28:52;;;;;;;2.23;2.00;;;17.10;66.90;;;;;;5074227;28;20198;-75
2022/04/27 12:31:26;;;;;;;3.30;1.90;;;17.30;67.40;;;;;;5075287;28;20194;-69
2022/04/27 12:33:59;;;;;;;4.43;2.20;;;17.30;66.90;;;;;;5074063;28;20182;-69
2022/04/27 12:39:24;;;;;;;3.00;1.77;;;17.60;65.70;;;;;;5074146;28;20281;-69
2022/04/27 12:42:04;;;;;;;2.90;1.80;;;17.70;62.20;;;;;;5073988;28;20338;-71
2022/04/27 12:44:41;;;;;;;4.53;1.90;;;18.00;61.60;;;;;;5074781;28;20229;-68
2022/04/27 12:47:10;;;;;;;3.37;2.07;;;18.40;64.10;;;;;;5074104;28;20252;-69
2022/04/27 12:49:40;;;;;;;4.10;1.90;;;18.70;60.70;;;;;;5074269;28;20285;-71
2022/04/27 12:52:19;;;;;;;2.80;1.90;;;19.20;61.20;;;;;;5074054;28;20289;-69
2022/04/27 12:54:47;;;;;;;2.03;1.60;;;19.80;60.20;;;;;;5073444;28;20675;-69
2022/04/27 12:57:14;;;;;;;3.93;2.00;;;20.40;60.00;;;;;;5073905;28;20209;-68
2022/04/27 13:00:02;;;;;;;2.90;2.00;;;20.30;58.60;;;;;;5074022;28;20252;-73
2022/04/27 13:02:30;;;;;;;3.23;1.83;;;20.40;57.80;;;;;;5073727;28;20238;-77
2022/04/27 13:04:57;;;;;;;4.13;2.07;;;20.10;57.60;;;;;;5075134;28;20194;-72
2022/04/27 13:07:24;;;;;;;4.87;2.20;;;19.90;57.40;;;;;;5073464;28;20251;-74